Time;durP1;ratioP1;P1;durP2;ratioP2;P2;SDS_P1;SDS_P2;PMS_P1;PMS_P2;Temp;Humidity;BMP_temperature;BMP_pressure;BME280_temperature;BME280_humidity;BME280_pressure;Samples;Min_cycle;Max_cycle;Signal;HPM_P1;HPM_P2
2023/02/16 00:01:16;;;;;;;;;;;;;;;-0.37;79.02;99096.25;5052436;28;19932;-55
2023/02/16 00:03:44;;;;;;;;;;;;;;;-0.43;79.25;99096.25;5070244;28;20396;-56
2023/02/16 00:06:14;;;;;;;;;;;;;;;-0.21;79.21;99094.94;5068956;28;19928;-56
2023/02/16 00:08:43;;;;;;;;;;;;;;;0.02;78.75;99093.59;5071867;28;20377;-56
2023/02/16 00:17:18;;;;;;;;;;;;;;;-0.04;78.07;99089.94;5060244;28;19924;-56
2023/02/16 00:19:46;;;;;;;;;;;;;;;-0.04;77.90;99092.59;5057210;28;19936;-56
2023/02/16 00:22:39;;;;;;;;;;;;;;;0.02;77.95;99081.06;5093874;28;19935;-57
2023/02/16 00:25:10;;;;;;;;;;;;;;;0.28;76.36;99080.06;5066302;28;19943;-56
2023/02/16 00:27:38;;;;;;;;;;;;;;;0.18;76.82;99083.22;5065474;28;19924;-56
2023/02/16 00:30:10;;;;;;;;;;;;;;;-0.01;77.23;99066.25;5055604;28;20393;-59
2023/02/16 00:32:38;;;;;;;;;;;;;;;-0.12;77.64;99077.63;5067346;28;19993;-56
2023/02/16 00:35:09;;;;;;;;;;;;;;;-0.37;78.09;99074.88;5065802;28;19936;-56
2023/02/16 00:37:37;;;;;;;;;;;;;;;-0.39;78.14;99071.59;5072275;28;19932;-57
2023/02/16 00:40:07;;;;;;;;;;;;;;;-0.57;78.90;99068.81;5061586;28;19925;-56
2023/02/16 00:42:36;;;;;;;;;;;;;;;-0.46;78.95;99070.81;5066693;28;19932;-55
2023/02/16 00:45:18;;;;;;;;;;;;;;;-0.41;78.94;99070.19;5089447;28;20326;-56
2023/02/16 00:47:47;;;;;;;;;;;;;;;-0.36;78.93;99073.03;5065918;28;19932;-59
2023/02/16 00:50:17;;;;;;;;;;;;;;;-0.41;79.22;99072.84;5058170;28;20013;-56
2023/02/16 00:52:46;;;;;;;;;;;;;;;-0.58;79.07;99067.97;5070291;28;20049;-56
2023/02/16 00:55:14;;;;;;;;;;;;;;;-0.50;79.26;99074.09;5063341;28;19983;-56
2023/02/16 00:57:43;;;;;;;;;;;;;;;-0.48;78.64;99070.22;5058646;28;19931;-57
2023/02/16 01:00:15;;;;;;;;;;;;;;;-0.62;78.81;99061.41;5065507;28;19925;-56
2023/02/16 01:02:44;;;;;;;;;;;;;;;-0.43;78.67;99065.03;5063317;28;20275;-56
2023/02/16 01:05:12;;;;;;;;;;;;;;;-0.52;78.59;99068.16;5063556;28;20348;-56
2023/02/16 01:13:12;;;;;;;;;;;;;;;-0.43;78.18;99064.22;5058547;28;20384;-56
2023/02/16 01:15:42;;;;;;;;;;;;;;;-0.43;78.12;99073.03;5059426;28;20043;-60
2023/02/16 01:18:10;;;;;;;;;;;;;;;-0.59;78.21;99063.66;5069840;28;19970;-56
2023/02/16 01:20:39;;;;;;;;;;;;;;;-0.70;78.78;99064.31;5065782;28;20320;-56
2023/02/16 01:23:08;;;;;;;;;;;;;;;-0.68;78.22;99064.94;5069526;28;19932;-56
2023/02/16 01:25:36;;;;;;;;;;;;;;;-0.62;78.64;99064.09;5065416;28;20583;-57
2023/02/16 01:28:12;;;;;;;;;;;;;;;-0.70;78.49;99060.81;5064738;28;19932;-56
2023/02/16 01:30:42;;;;;;;;;;;;;;;-0.54;77.93;99058.50;5066499;28;19932;-57
2023/02/16 01:33:11;;;;;;;;;;;;;;;-0.37;77.25;99056.19;5066402;28;19974;-56
2023/02/16 01:35:39;;;;;;;;;;;;;;;-0.49;76.94;99049.03;5085351;28;19925;-56
2023/02/16 01:38:10;;;;;;;;;;;;;;;-0.59;77.40;99052.16;5065428;28;19924;-56
2023/02/16 01:40:40;;;;;;;;;;;;;;;-0.52;77.36;99050.31;5094941;28;19951;-56
2023/02/16 01:43:10;;;;;;;;;;;;;;;-0.60;77.44;99040.66;5063032;28;20373;-57
2023/02/16 01:45:41;;;;;;;;;;;;;;;-0.55;76.81;99045.38;5070988;28;19932;-56
2023/02/16 01:48:13;;;;;;;;;;;;;;;-0.69;77.21;99041.94;5057849;28;20396;-56
2023/02/16 01:50:43;;;;;;;;;;;;;;;-0.72;77.63;99038.88;5067181;28;19990;-56
2023/02/16 01:53:14;;;;;;;;;;;;;;;-0.69;77.56;99038.44;5059451;28;19940;-56
2023/02/16 01:58:37;;;;;;;;;;;;;;;-0.72;77.37;99039.69;5054580;28;19932;-57
2023/02/16 02:01:42;;;;;;;;;;;;;;;-0.80;77.22;99037.25;5076094;28;19940;-57
2023/02/16 02:07:04;;;;;;;;;;;;;;;-0.76;77.66;99033.13;4976652;28;19976;-57
2023/02/16 02:09:35;;;;;;;;;;;;;;;-0.73;77.24;99035.41;4980914;28;19933;-57
2023/02/16 02:12:06;;;;;;;;;;;;;;;-0.80;77.48;99042.56;4971421;28;19988;-56
2023/02/16 02:17:27;;;;;;;;;;;;;;;-1.15;78.35;99024.22;4969217;28;19926;-56
2023/02/16 02:19:59;;;;;;;;;;;;;;;-0.94;78.45;99025.00;4990143;28;19937;-56
2023/02/16 02:25:25;;;;;;;;;;;;;;;-0.88;77.97;99018.81;4998571;28;20375;-56
2023/02/16 02:27:56;;;;;;;;;;;;;;;-0.76;77.57;99011.78;4997961;28;20337;-56
2023/02/16 02:30:27;;;;;;;;;;;;;;;-0.93;77.64;99011.44;4968636;28;20835;-56
2023/02/16 02:33:00;;;;;;;;;;;;;;;-0.88;77.76;99008.16;4973081;28;19932;-56
2023/02/16 02:35:36;;;;;;;;;;;;;;;-0.86;77.30;99006.88;5033202;28;20409;-56
2023/02/16 02:38:05;;;;;;;;;;;;;;;-0.92;77.79;99006.91;5069103;28;20253;-56
2023/02/16 02:40:36;;;;;;;;;;;;;;;-0.89;77.94;99006.50;5066408;28;19925;-56
2023/02/16 02:43:07;;;;;;;;;;;;;;;-0.79;77.60;99009.56;5066559;28;19928;-56
2023/02/16 02:45:36;;;;;;;;;;;;;;;-0.84;77.10;99010.19;5069232;28;19932;-56
2023/02/16 02:48:05;;;;;;;;;;;;;;;-0.93;77.68;99010.63;5092702;28;19928;-57
2023/02/16 02:50:38;;;;;;;;;;;;;;;-0.83;77.78;99003.00;5095029;28;19942;-57
2023/02/16 02:53:09;;;;;;;;;;;;;;;-0.86;77.74;99012.22;5063092;28;19928;-57
2023/02/16 03:01:11;;;;;;;;;;;;;;;-0.85;77.79;99002.41;5091569;28;19925;-56
2023/02/16 03:03:40;;;;;;;;;;;;;;;-0.80;77.26;99005.22;5100617;28;19978;-56
2023/02/16 03:06:10;;;;;;;;;;;;;;;-0.91;77.96;98998.69;5096639;28;20015;-56
2023/02/16 03:08:40;;;;;;;;;;;;;;;-0.90;77.93;99002.22;5065436;28;19925;-56
2023/02/16 03:30:41;;;;;;;;;;;;;;;-0.60;76.45;98973.94;5042649;28;19936;-56
2023/02/16 03:33:10;;;;;;;;;;;;;;;-0.68;76.38;98971.53;5043205;28;19932;-57
2023/02/16 03:35:38;;;;;;;;;;;;;;;-0.64;76.24;98962.06;5041135;28;20385;-56
2023/02/16 03:38:06;;;;;;;;;;;;;;;-0.70;76.57;98962.91;5048063;28;19925;-56
2023/02/16 03:40:39;;;;;;;;;;;;;;;-0.69;76.73;98958.38;5044588;28;19925;-56
2023/02/16 03:43:08;;;;;;;;;;;;;;;-0.60;75.79;98965.13;5052594;28;20340;-57
2023/02/16 03:45:37;;;;;;;;;;;;;;;-0.61;75.36;98966.97;5053754;28;19970;-56
2023/02/16 03:48:07;;;;;;;;;;;;;;;-0.73;75.88;98958.00;5071727;28;19925;-56
2023/02/16 03:50:35;;;;;;;;;;;;;;;-0.75;76.35;98957.38;5070852;28;19924;-56
2023/02/16 03:53:06;;;;;;;;;;;;;;;-0.67;76.06;98965.16;5063789;28;19936;-56
2023/02/16 03:55:35;;;;;;;;;;;;;;;-0.81;76.28;98952.91;5065194;28;19928;-56
2023/02/16 03:58:03;;;;;;;;;;;;;;;-0.87;76.45;98951.91;5059815;28;19929;-56
2023/02/16 04:00:31;;;;;;;;;;;;;;;-0.86;76.72;98963.38;5058297;28;19947;-57
2023/02/16 04:03:00;;;;;;;;;;;;;;;-0.63;76.20;98953.03;5068068;28;19947;-57
2023/02/16 04:05:30;;;;;;;;;;;;;;;-0.69;75.55;98961.91;5071550;28;19935;-56
2023/02/16 04:08:00;;;;;;;;;;;;;;;-0.93;76.67;98967.94;5061644;28;19955;-56
2023/02/16 04:10:29;;;;;;;;;;;;;;;-0.87;76.81;98983.09;5064026;28;20707;-57
2023/02/16 04:12:57;;;;;;;;;;;;;;;-0.78;75.99;99008.53;5054000;28;19925;-56
2023/02/16 04:15:26;;;;;;;;;;;;;;;-0.99;76.72;99004.28;5059454;28;19928;-56
2023/02/16 04:17:54;;;;;;;;;;;;;;;-0.90;76.65;99011.03;5070437;28;19954;-56
2023/02/16 04:20:23;;;;;;;;;;;;;;;-0.87;76.39;99015.13;5067224;28;19932;-56
2023/02/16 04:22:52;;;;;;;;;;;;;;;-1.04;77.15;99011.28;5066085;28;19931;-56
2023/02/16 04:25:20;;;;;;;;;;;;;;;-0.73;76.21;99014.03;5069303;28;19974;-56
2023/02/16 04:27:49;;;;;;;;;;;;;;;-0.75;76.66;99018.75;5067962;28;20116;-57
2023/02/16 04:30:18;;;;;;;;;;;;;;;-0.95;77.10;99013.50;5065737;28;20347;-57
2023/02/16 04:32:46;;;;;;;;;;;;;;;-1.07;77.70;99017.81;5068858;28;20541;-56
2023/02/16 04:35:14;;;;;;;;;;;;;;;-1.01;77.31;99013.50;5061707;28;19935;-56
2023/02/16 04:38:11;;;;;;;;;;;;;;;-0.93;77.77;99023.97;5067449;28;19970;-57
2023/02/16 04:40:39;;;;;;;;;;;;;;;-1.00;77.37;99015.97;5063200;28;20346;-57
2023/02/16 04:43:07;;;;;;;;;;;;;;;-1.24;78.26;99008.63;5068617;28;19951;-56
2023/02/16 04:45:38;;;;;;;;;;;;;;;-1.21;78.53;98997.56;5063869;28;20293;-56
2023/02/16 04:48:06;;;;;;;;;;;;;;;-1.42;79.09;98994.13;5066985;28;19939;-57
2023/02/16 04:50:34;;;;;;;;;;;;;;;-1.20;78.76;98992.03;5071453;28;19961;-56
2023/02/16 04:55:57;;;;;;;;;;;;;;;-0.79;77.51;98998.88;5066157;28;20285;-56
2023/02/16 04:58:26;;;;;;;;;;;;;;;-0.99;77.65;98996.28;5064043;28;20015;-55
2023/02/16 05:00:54;;;;;;;;;;;;;;;-1.13;78.08;98990.16;5062388;28;19996;-57
2023/02/16 05:03:25;;;;;;;;;;;;;;;-1.11;78.09;98987.28;5064953;28;19925;-57
2023/02/16 05:05:53;;;;;;;;;;;;;;;-0.91;77.85;98995.22;5068836;28;19929;-57
2023/02/16 05:08:21;;;;;;;;;;;;;;;-0.72;77.18;99002.34;5061688;28;19931;-58
2023/02/16 05:17:20;;;;;;;;;;;;;;;-0.80;77.35;98999.88;5057003;28;19925;-58
2023/02/16 05:19:50;;;;;;;;;;;;;;;-0.93;77.99;98998.09;5093493;28;19928;-57
2023/02/16 05:22:21;;;;;;;;;;;;;;;-0.82;77.44;99009.97;5062132;28;19924;-56
2023/02/16 05:24:52;;;;;;;;;;;;;;;-0.76;77.57;99009.13;5060291;28;20473;-56
2023/02/16 05:27:45;;;;;;;;;;;;;;;-0.68;77.63;99008.91;5059320;28;19932;-56
2023/02/16 05:30:15;;;;;;;;;;;;;;;-0.77;78.42;99010.16;5062004;28;19936;-57
2023/02/16 05:32:43;;;;;;;;;;;;;;;-0.73;78.52;99011.38;5059769;28;19937;-57
2023/02/16 05:35:11;;;;;;;;;;;;;;;-0.73;78.55;99011.38;5062879;28;19933;-56
2023/02/16 05:37:39;;;;;;;;;;;;;;;-0.74;78.82;99015.09;5058877;28;19925;-56
2023/02/16 05:40:10;;;;;;;;;;;;;;;-0.72;78.81;99010.34;5066359;28;19928;-57
2023/02/16 05:42:38;;;;;;;;;;;;;;;-0.83;79.20;99019.00;5057223;28;19924;-56
2023/02/16 05:48:00;;;;;;;;;;;;;;;-0.74;79.04;99022.28;5059345;28;19932;-56
2023/02/16 05:50:28;;;;;;;;;;;;;;;-0.74;79.05;99020.41;5064237;28;19925;-59
2023/02/16 05:52:59;;;;;;;;;;;;;;;-0.78;79.39;99026.38;5061739;28;20365;-58
2023/02/16 05:55:26;;;;;;;;;;;;;;;-0.81;79.37;99032.94;5063095;28;20285;-54
2023/02/16 05:57:54;;;;;;;;;;;;;;;-1.09;80.59;99023.38;5063503;28;20436;-55
2023/02/16 06:00:23;;;;;;;;;;;;;;;-1.07;81.10;99026.66;5048999;28;20522;-55
2023/02/16 06:02:53;;;;;;;;;;;;;;;-1.02;80.56;99030.53;5056479;28;19975;-58
2023/02/16 06:05:22;;;;;;;;;;;;;;;-0.96;80.50;99027.03;5081018;28;19975;-56
2023/02/16 06:07:50;;;;;;;;;;;;;;;-0.85;80.29;99023.75;5065522;28;19935;-54
2023/02/16 06:10:18;;;;;;;;;;;;;;;-0.69;79.70;99027.75;5057014;28;19967;-55
2023/02/16 06:12:46;;;;;;;;;;;;;;;-0.70;79.46;99026.94;5053400;28;19929;-55
2023/02/16 06:15:13;;;;;;;;;;;;;;;-0.69;79.92;99036.63;5062695;28;19932;-55
2023/02/16 06:17:43;;;;;;;;;;;;;;;-0.85;79.95;99029.09;5093915;28;19932;-56
2023/02/16 06:20:11;;;;;;;;;;;;;;;-0.81;80.37;99030.28;5087555;28;20313;-57
2023/02/16 06:22:40;;;;;;;;;;;;;;;-0.74;79.85;99047.09;5059453;28;19925;-55
2023/02/16 06:25:09;;;;;;;;;;;;;;;-0.73;80.19;99043.41;5065996;28;20354;-56
2023/02/16 06:27:37;;;;;;;;;;;;;;;-0.66;80.14;99040.69;5062432;28;20374;-55
2023/02/16 06:30:07;;;;;;;;;;;;;;;-0.83;80.24;99040.34;5049281;28;19933;-61
2023/02/16 06:32:35;;;;;;;;;;;;;;;-0.85;80.33;99043.22;5054927;28;19978;-55
2023/02/16 06:35:04;;;;;;;;;;;;;;;-0.80;79.96;99043.44;5059803;28;19946;-55
2023/02/16 06:37:33;;;;;;;;;;;;;;;-0.97;80.83;99036.06;5067040;28;19928;-55
2023/02/16 06:40:02;;;;;;;;;;;;;;;-0.92;80.69;99033.59;5071247;28;19924;-55
2023/02/16 06:42:30;;;;;;;;;;;;;;;-0.84;80.56;99036.03;5073989;28;19925;-59
2023/02/16 06:45:25;;;;;;;;;;;;;;;-1.00;80.71;99040.00;5058258;28;20278;-55
2023/02/16 06:47:53;;;;;;;;;;;;;;;-0.84;80.58;99042.19;5096806;28;19932;-55
2023/02/16 06:50:21;;;;;;;;;;;;;;;-0.61;79.56;99047.03;5066367;28;19978;-58
2023/02/16 06:52:49;;;;;;;;;;;;;;;-0.63;79.07;99046.44;5065228;28;19951;-55
2023/02/16 06:55:18;;;;;;;;;;;;;;;-0.64;79.29;99049.31;5067873;28;20390;-54
2023/02/16 06:57:46;;;;;;;;;;;;;;;-0.71;79.96;99062.69;5063300;28;19929;-55
2023/02/16 07:00:21;;;;;;;;;;;;;;;-0.67;79.41;99066.56;5066308;28;19932;-56
2023/02/16 07:02:50;;;;;;;;;;;;;;;-0.68;79.21;99062.28;5094625;28;19972;-54
2023/02/16 07:05:18;;;;;;;;;;;;;;;-0.70;79.59;99064.31;5066674;28;20390;-55
2023/02/16 07:07:46;;;;;;;;;;;;;;;-0.74;79.88;99067.63;5061166;28;19925;-55
2023/02/16 07:10:38;;;;;;;;;;;;;;;-0.61;79.17;99064.91;5061197;28;20508;-57
2023/02/16 07:13:18;;;;;;;;;;;;;;;-0.62;79.36;99056.09;5067472;28;19932;-55
2023/02/16 07:18:39;;;;;;;;;;;;;;;-0.67;79.59;99065.75;5066181;28;19925;-55
2023/02/16 07:21:09;;;;;;;;;;;;;;;-0.65;79.73;99055.66;5066963;28;19954;-55
2023/02/16 07:23:37;;;;;;;;;;;;;;;-0.58;79.20;99062.66;5060074;28;19928;-55
2023/02/16 07:26:05;;;;;;;;;;;;;;;-0.52;78.90;99066.31;5056933;28;20381;-55
2023/02/16 07:28:35;;;;;;;;;;;;;;;-0.41;78.99;99056.84;5063964;28;19933;-55
2023/02/16 07:31:07;;;;;;;;;;;;;;;-0.55;79.05;99051.53;5059528;28;19939;-56
2023/02/16 07:33:36;;;;;;;;;;;;;;;-0.31;78.28;99055.34;5067870;28;19924;-55
2023/02/16 07:36:04;;;;;;;;;;;;;;;-0.32;78.09;99058.19;5069488;28;19930;-55
2023/02/16 07:38:32;;;;;;;;;;;;;;;-0.19;77.68;99050.13;5103050;28;19951;-56
2023/02/16 07:41:00;;;;;;;;;;;;;;;-0.16;77.71;99048.88;5068884;28;19947;-55
2023/02/16 07:43:29;;;;;;;;;;;;;;;-0.19;77.62;99044.81;5064706;28;19925;-55
2023/02/16 07:48:50;;;;;;;;;;;;;;;0.04;76.96;99054.13;5069172;28;19924;-55
2023/02/16 07:51:21;;;;;;;;;;;;;;;0.20;76.16;99046.38;5070163;28;19924;-56
2023/02/16 07:53:49;;;;;;;;;;;;;;;0.07;76.54;99043.81;5065664;28;19929;-55
2023/02/16 07:56:19;;;;;;;;;;;;;;;0.15;76.15;99045.41;5062899;28;20596;-59
2023/02/16 07:58:47;;;;;;;;;;;;;;;0.05;76.33;99045.06;5057933;28;19942;-55
2023/02/16 08:01:16;;;;;;;;;;;;;;;0.12;76.51;99038.66;5056420;28;19932;-55
2023/02/16 08:03:44;;;;;;;;;;;;;;;0.26;76.42;99042.03;5064832;28;19936;-55
2023/02/16 08:06:13;;;;;;;;;;;;;;;0.34;75.63;99044.47;5070993;28;20323;-57
2023/02/16 08:08:41;;;;;;;;;;;;;;;0.29;76.04;99044.28;5068346;28;19925;-55
2023/02/16 08:11:09;;;;;;;;;;;;;;;0.35;75.79;99035.41;5095467;28;19932;-55
2023/02/16 08:14:02;;;;;;;;;;;;;;;0.28;75.95;99042.66;5067519;28;19925;-55
2023/02/16 08:16:57;;;;;;;;;;;;;;;0.50;75.73;99037.75;5057101;28;20508;-55
2023/02/16 08:19:26;;;;;;;;;;;;;;;0.51;75.07;99040.19;5072848;28;20385;-55
2023/02/16 08:21:54;;;;;;;;;;;;;;;0.47;75.61;99028.28;5070624;28;19928;-56
2023/02/16 08:24:23;;;;;;;;;;;;;;;0.66;75.35;99033.72;5067198;28;19932;-55
2023/02/16 08:26:52;;;;;;;;;;;;;;;0.80;75.11;99035.22;5066738;28;19925;-55
2023/02/16 08:33:33;;;;;;;;;;;;;;;0.86;75.13;99045.03;5059356;28;20021;-55
2023/02/16 08:51:33;;;;;;;;;;;;;;;1.97;71.91;99059.19;5020089;28;19925;-55
2023/02/16 08:54:32;;;;;;;;;;;;;;;2.03;72.12;99059.13;5026996;28;20461;-54
2023/02/16 08:57:46;;;;;;;;;;;;;;;2.20;71.08;99053.09;5000811;28;19932;-56
2023/02/16 09:03:33;;;;;;;;;;;;;;;2.45;70.70;99056.44;5014269;28;19929;-58
2023/02/16 09:06:42;;;;;;;;;;;;;;;2.53;70.52;99058.75;5023680;28;20122;-55
2023/02/16 09:12:51;;;;;;;;;;;;;;;2.89;69.13;99068.50;5069314;28;19967;-55
2023/02/16 09:16:04;;;;;;;;;;;;;;;2.86;68.94;99066.25;5041947;28;19968;-55
2023/02/16 09:25:38;;;;;;;;;;;;;;;3.24;68.27;99085.63;5062934;28;19932;-55
2023/02/16 09:35:48;;;;;;;;;;;;;;;3.69;66.93;99091.19;4948388;29;20014;-61
2023/02/16 09:38:50;;;;;;;;;;;;;;;3.80;66.40;99090.31;4939217;28;20029;-55
2023/02/16 09:41:53;;;;;;;;;;;;;;;3.99;66.79;99087.44;4933107;29;19926;-57
2023/02/16 09:48:10;;;;;;;;;;;;;;;4.28;65.23;99096.34;4945620;28;19934;-55
2023/02/16 09:55:23;;;;;;;;;;;;;;;4.45;64.68;99089.94;5011907;28;19972;-55
2023/02/16 09:58:44;;;;;;;;;;;;;;;4.52;64.98;99081.69;5031643;28;20406;-59
2023/02/16 10:01:40;;;;;;;;;;;;;;;4.86;64.54;99087.13;4994547;28;19925;-56
2023/02/16 10:05:17;;;;;;;;;;;;;;;4.86;63.50;99076.34;5047617;28;19947;-55
2023/02/16 10:18:18;;;;;;;;;;;;;;;5.31;62.63;99070.00;5067180;28;19959;-55
2023/02/16 10:20:55;;;;;;;;;;;;;;;5.57;61.95;99060.38;5036883;28;19925;-55
2023/02/16 10:24:07;;;;;;;;;;;;;;;5.67;61.86;99055.91;5026584;28;20781;-55
2023/02/16 10:30:38;;;;;;;;;;;;;;;5.84;60.99;99060.41;5015924;28;19971;-55
2023/02/16 10:41:04;;;;;;;;;;;;;;;6.27;60.06;99043.38;5022098;28;19933;-54
2023/02/16 10:43:45;;;;;;;;;;;;;;;6.40;59.47;99039.47;5008926;28;19940;-55
2023/02/16 10:46:34;;;;;;;;;;;;;;;6.34;59.68;99035.06;5018428;28;20015;-57
2023/02/16 10:49:14;;;;;;;;;;;;;;;6.49;59.67;99033.31;5024307;28;20398;-56
2023/02/16 10:51:57;;;;;;;;;;;;;;;6.64;58.99;99035.31;5025712;28;19929;-55
2023/02/16 10:54:34;;;;;;;;;;;;;;;6.74;58.67;99031.91;5019395;28;19932;-55
2023/02/16 10:57:33;;;;;;;;;;;;;;;6.75;58.66;99034.31;5041107;28;19925;-54
2023/02/16 11:00:40;;;;;;;;;;;;;;;6.74;59.04;99032.72;5012491;28;19932;-55
2023/02/16 11:07:46;;;;;;;;;;;;;;;7.16;57.45;99020.28;5061451;28;19928;-54
2023/02/16 11:10:51;;;;;;;;;;;;;;;7.22;57.01;99022.75;5024760;28;19931;-54
2023/02/16 11:24:32;;;;;;;;;;;;;;;7.71;56.52;98995.38;5041517;28;20321;-55
2023/02/16 11:27:02;;;;;;;;;;;;;;;7.75;56.39;98988.38;5050635;28;20576;-55
2023/02/16 11:29:31;;;;;;;;;;;;;;;7.79;56.35;98984.06;5049281;28;19931;-55
2023/02/16 11:31:59;;;;;;;;;;;;;;;7.95;55.96;98973.28;5027381;28;19966;-55
2023/02/16 11:34:30;;;;;;;;;;;;;;;8.07;55.71;98976.53;5031654;28;19975;-55
2023/02/16 11:37:02;;;;;;;;;;;;;;;8.13;55.50;98972.75;5023999;28;20609;-55
2023/02/16 11:39:32;;;;;;;;;;;;;;;8.23;55.28;98967.34;5006143;28;19944;-57
2023/02/16 11:42:01;;;;;;;;;;;;;;;8.30;54.80;98967.06;5023507;28;19925;-54
2023/02/16 11:44:34;;;;;;;;;;;;;;;8.47;55.11;98967.66;5026707;28;19962;-55
2023/02/16 11:47:04;;;;;;;;;;;;;;;8.65;54.25;98964.38;5040563;28;19978;-55
2023/02/16 11:49:34;;;;;;;;;;;;;;;8.72;54.16;98968.69;5050617;28;19935;-56
2023/02/16 11:52:04;;;;;;;;;;;;;;;8.73;54.52;98964.91;5043461;28;19943;-55
2023/02/16 11:54:32;;;;;;;;;;;;;;;8.84;54.02;98959.22;5047054;28;19982;-55
2023/02/16 11:57:01;;;;;;;;;;;;;;;8.96;53.75;98963.53;5053753;28;19946;-54
2023/02/16 11:59:32;;;;;;;;;;;;;;;9.09;53.76;98952.09;5067049;28;19943;-55
2023/02/16 12:02:03;;;;;;;;;;;;;;;8.99;53.80;98947.50;5063071;28;19955;-55
2023/02/16 12:04:36;;;;;;;;;;;;;;;8.90;53.79;98943.75;5070090;28;20004;-55
2023/02/16 12:07:07;;;;;;;;;;;;;;;8.83;54.26;98948.63;5059241;28;19940;-55
2023/02/16 12:09:36;;;;;;;;;;;;;;;8.77;54.37;98941.59;5060476;28;19935;-55
2023/02/16 12:12:06;;;;;;;;;;;;;;;8.80;54.53;98949.19;5065682;28;19938;-54
2023/02/16 12:15:01;;;;;;;;;;;;;;;8.92;54.36;98944.28;5065960;28;20364;-54
2023/02/16 12:17:43;;;;;;;;;;;;;;;8.80;54.70;98944.59;5064670;28;19963;-56
2023/02/16 12:20:14;;;;;;;;;;;;;;;8.85;54.52;98936.44;5096599;28;19935;-55
2023/02/16 12:22:44;;;;;;;;;;;;;;;8.92;54.49;98934.25;5059922;28;20385;-55
2023/02/16 12:28:12;;;;;;;;;;;;;;;9.09;54.37;98920.38;5056192;28;19943;-57
2023/02/16 12:30:45;;;;;;;;;;;;;;;9.10;54.04;98911.13;5062353;28;20354;-56
2023/02/16 12:33:27;;;;;;;;;;;;;;;9.23;53.82;98917.88;5062468;28;19942;-56
2023/02/16 12:36:02;;;;;;;;;;;;;;;9.34;53.35;98916.75;5059127;28;20492;-56
2023/02/16 12:38:34;;;;;;;;;;;;;;;9.27;53.64;98907.28;5063420;28;19935;-56
2023/02/16 12:41:04;;;;;;;;;;;;;;;9.32;53.73;98910.81;5068464;28;20637;-55
2023/02/16 12:43:34;;;;;;;;;;;;;;;9.49;52.94;98906.91;5068063;28;19962;-59
2023/02/16 12:46:05;;;;;;;;;;;;;;;9.49;53.20;98906.91;5067921;28;19951;-56
2023/02/16 12:54:28;;;;;;;;;;;;;;;9.89;51.84;98890.38;5061052;28;19988;-55
2023/02/16 12:56:58;;;;;;;;;;;;;;;9.90;51.71;98891.16;5067324;28;19951;-55
2023/02/16 12:59:29;;;;;;;;;;;;;;;10.03;51.21;98884.31;5058188;28;19934;-55
2023/02/16 13:02:22;;;;;;;;;;;;;;;10.08;51.21;98887.78;5056295;28;19955;-56
2023/02/16 13:04:52;;;;;;;;;;;;;;;10.21;50.85;98883.59;5062909;28;20442;-54
2023/02/16 13:07:21;;;;;;;;;;;;;;;10.30;50.48;98879.22;5065132;28;20308;-55
2023/02/16 13:09:51;;;;;;;;;;;;;;;10.28;50.87;98875.97;5064490;28;19943;-56
2023/02/16 13:15:16;;;;;;;;;;;;;;;10.28;50.76;98872.44;5089776;28;19978;-55
2023/02/16 13:17:45;;;;;;;;;;;;;;;10.24;50.60;98864.06;5095280;28;19981;-54
2023/02/16 13:20:15;;;;;;;;;;;;;;;10.27;51.02;98863.47;5066003;28;19935;-54
2023/02/16 13:22:46;;;;;;;;;;;;;;;10.36;50.23;98861.75;5062062;28;19942;-55
2023/02/16 13:25:24;;;;;;;;;;;;;;;10.47;49.97;98860.56;5062422;28;20691;-54
2023/02/16 13:27:54;;;;;;;;;;;;;;;10.51;50.48;98858.09;5087109;28;20470;-54
2023/02/16 13:30:34;;;;;;;;;;;;;;;10.46;50.15;98867.09;5057934;28;20490;-58
2023/02/16 13:33:13;;;;;;;;;;;;;;;10.42;49.94;98855.19;5077684;28;19950;-55
2023/02/16 13:36:00;;;;;;;;;;;;;;;10.44;49.78;98853.00;5086353;28;20441;-54
2023/02/16 13:38:54;;;;;;;;;;;;;;;10.42;48.69;98844.31;5081463;28;19984;-55
2023/02/16 13:41:27;;;;;;;;;;;;;;;10.20;49.21;98847.47;5084856;28;20348;-55
2023/02/16 13:43:57;;;;;;;;;;;;;;;10.38;49.19;98853.31;5084365;28;19946;-55
2023/02/16 13:46:26;;;;;;;;;;;;;;;10.32;49.91;98852.56;5080769;28;19958;-56
2023/02/16 13:48:57;;;;;;;;;;;;;;;10.40;49.32;98857.38;5078685;28;19925;-56
2023/02/16 13:54:22;;;;;;;;;;;;;;;10.27;48.61;98849.09;5076115;28;19928;-56
2023/02/16 13:56:50;;;;;;;;;;;;;;;10.20;48.98;98847.47;5079114;28;19924;-55
2023/02/16 13:59:33;;;;;;;;;;;;;;;10.28;48.61;98846.09;5073599;28;19955;-55
2023/02/16 14:02:26;;;;;;;;;;;;;;;10.26;48.37;98848.28;5068247;28;20278;-56
2023/02/16 14:05:03;;;;;;;;;;;;;;;10.19;48.84;98850.50;5090644;28;20210;-55
2023/02/16 14:07:34;;;;;;;;;;;;;;;10.17;48.73;98844.53;5094769;28;19950;-55
2023/02/16 14:10:02;;;;;;;;;;;;;;;10.23;48.66;98848.84;5081815;28;19934;-56
2023/02/16 14:12:33;;;;;;;;;;;;;;;10.34;48.61;98847.66;5064738;28;19937;-59
2023/02/16 14:15:01;;;;;;;;;;;;;;;10.33;48.55;98856.09;5095412;28;19935;-61
2023/02/16 14:17:31;;;;;;;;;;;;;;;10.33;48.33;98856.09;5090236;28;20000;-59
2023/02/16 14:20:00;;;;;;;;;;;;;;;10.29;48.17;98855.88;5066150;28;19996;-54
2023/02/16 14:22:32;;;;;;;;;;;;;;;10.27;48.47;98847.19;5083383;28;19974;-60
2023/02/16 14:25:06;;;;;;;;;;;;;;;10.26;49.03;98851.00;5096079;28;20394;-54
2023/02/16 14:27:59;;;;;;;;;;;;;;;10.39;48.74;98863.91;5098875;28;20376;-55
2023/02/16 14:30:29;;;;;;;;;;;;;;;10.43;48.70;98856.00;5082808;28;20382;-55
2023/02/16 14:32:59;;;;;;;;;;;;;;;10.46;48.40;98856.22;5082164;28;19938;-56
2023/02/16 14:35:52;;;;;;;;;;;;;;;10.49;48.94;98857.56;5088308;28;19934;-54
2023/02/16 14:38:22;;;;;;;;;;;;;;;10.39;48.62;98850.34;5086771;28;20449;-56
2023/02/16 14:40:54;;;;;;;;;;;;;;;10.23;49.09;98848.84;5090768;28;19942;-55
2023/02/16 14:43:27;;;;;;;;;;;;;;;10.14;49.69;98853.25;5079316;28;19941;-55
2023/02/16 14:46:11;;;;;;;;;;;;;;;10.13;49.52;98862.50;5067888;28;19955;-56
2023/02/16 14:48:52;;;;;;;;;;;;;;;10.13;50.28;98857.06;5095509;28;19948;-55
2023/02/16 14:51:28;;;;;;;;;;;;;;;10.22;49.97;98866.19;5078440;28;19938;-56
2023/02/16 14:54:07;;;;;;;;;;;;;;;10.25;49.83;98865.69;5085405;28;19942;-55
2023/02/16 14:56:40;;;;;;;;;;;;;;;10.28;50.00;98859.69;5089089;28;20041;-57
2023/02/16 14:59:34;;;;;;;;;;;;;;;10.27;49.84;98862.66;5087460;28;19941;-55
2023/02/16 15:02:20;;;;;;;;;;;;;;;10.29;49.52;98866.72;5081761;28;19951;-55
2023/02/16 15:04:49;;;;;;;;;;;;;;;10.29;50.16;98858.59;5083820;28;19958;-56
2023/02/16 15:07:17;;;;;;;;;;;;;;;10.37;49.53;98857.94;5093372;28;19942;-55
2023/02/16 15:09:46;;;;;;;;;;;;;;;10.24;50.29;98864.06;5063399;28;19941;-55
2023/02/16 15:12:21;;;;;;;;;;;;;;;10.22;50.40;98863.50;5087209;28;19935;-55
2023/02/16 15:20:35;;;;;;;;;;;;;;;10.03;51.30;98854.44;5104550;28;20401;-55
2023/02/16 15:23:05;;;;;;;;;;;;;;;10.05;50.70;98854.97;5088796;28;19950;-58
2023/02/16 15:25:37;;;;;;;;;;;;;;;10.04;50.99;98858.78;5091611;28;19960;-55
2023/02/16 15:28:15;;;;;;;;;;;;;;;9.93;51.60;98861.56;5089591;28;19945;-56
2023/02/16 15:30:46;;;;;;;;;;;;;;;9.86;51.60;98854.84;5095285;27;19951;-55
2023/02/16 15:36:19;;;;;;;;;;;;;;;9.83;52.59;98855.41;5091157;28;19955;-56
2023/02/16 15:39:11;;;;;;;;;;;;;;;9.77;53.38;98843.78;5067922;28;19990;-55
2023/02/16 15:42:15;;;;;;;;;;;;;;;9.59;54.21;98842.56;5087755;28;19935;-56
2023/02/16 15:45:27;;;;;;;;;;;;;;;9.56;54.14;98832.25;5084581;28;20037;-55
2023/02/16 15:48:23;;;;;;;;;;;;;;;9.61;54.21;98834.94;5080772;28;19958;-56
2023/02/16 15:50:52;;;;;;;;;;;;;;;9.51;54.86;98839.63;5066095;28;20280;-55
2023/02/16 15:53:24;;;;;;;;;;;;;;;9.50;54.79;98838.00;5080992;28;19939;-55
2023/02/16 15:55:52;;;;;;;;;;;;;;;9.43;55.22;98841.84;5096917;28;19935;-55
2023/02/16 15:58:45;;;;;;;;;;;;;;;9.40;54.91;98839.69;5084661;28;20654;-55
2023/02/16 16:01:22;;;;;;;;;;;;;;;9.45;54.71;98831.53;5103525;28;19950;-57
2023/02/16 16:04:23;;;;;;;;;;;;;;;9.52;53.85;98828.47;5089974;28;20180;-55
2023/02/16 16:06:51;;;;;;;;;;;;;;;9.52;53.96;98830.38;5110778;27;20005;-55
2023/02/16 16:09:24;;;;;;;;;;;;;;;9.50;53.85;98827.16;5098173;27;19941;-55
2023/02/16 16:11:53;;;;;;;;;;;;;;;9.38;54.43;98836.47;5112514;27;19961;-60
2023/02/16 16:14:22;;;;;;;;;;;;;;;9.27;54.44;98834.91;5083308;28;20304;-56
2023/02/16 16:16:52;;;;;;;;;;;;;;;9.17;54.39;98832.25;5074648;28;19963;-55
2023/02/16 16:19:45;;;;;;;;;;;;;;;9.07;55.15;98832.28;5084705;28;20410;-55
2023/02/16 16:22:38;;;;;;;;;;;;;;;9.01;55.21;98830.69;5064533;28;20396;-55